| time (UTC) | temp F | wind direction | speed knots | gust knots | rain 1hr in | rain 24hr in | rain mn in | humidity % | barometer mb |
| 20260503013905 | 69 | 155 | 4.3 | 7.0 | 0.01 | 0.08 | 0.08 | 86 | 1018.3 |
| 20260503013404 | 69 | 142 | 2.6 | 4.3 | 0.01 | 0.08 | 0.08 | 87 | 1018.5 |
| 20260503012906 | 69 | 146 | 0.9 | 2.6 | 0.01 | 0.08 | 0.08 | 88 | 1018.3 |
| 20260503012405 | 69 | 146 | 0.9 | 4.3 | 0.01 | 0.08 | 0.08 | 87 | 1018.3 |
| 20260503011910 | 69 | 145 | 1.7 | 9.6 | 0.02 | 0.08 | 0.08 | 86 | 1018.2 |
| 20260503011404 | 69 | 128 | 3.5 | 9.6 | 0.02 | 0.08 | 0.08 | 86 | 1018.1 |
| 20260503010904 | 69 | 101 | 2.6 | 7.8 | 0.02 | 0.08 | 0.08 | 86 | 1018.2 |
| 20260503010402 | 69 | 127 | 2.6 | 8.7 | 0.02 | 0.08 | 0.08 | 87 | 1018.2 |
| 20260503010218 | 69 | 110 | 5.2 | 9.6 | 0.02 | 0.06 | 0.08 | 87 | 1018.3 |
| 20260503005354 | 69 | 110 | 5.2 | 9.6 | 0.03 | 0.06 | 0.08 | 87 | 1018.2 |
| 20260503005215 | 69 | 98 | 4.3 | 11.3 | 0.03 | 0.06 | 0.07 | 87 | 1018.2 |
| 20260503004349 | 69 | 115 | 7.8 | 11.3 | 0.03 | 0.06 | 0.07 | 87 | 1018.2 |
| 20260503003845 | 69 | 98 | 6.1 | 13.0 | 0.03 | 0.06 | 0.07 | 88 | 1018.1 |
| 20260503003702 | 69 | 85 | 7.8 | 13.0 | 0.03 | 0.06 | 0.07 | 88 | 1018.2 |
| 20260503002839 | 69 | 106 | 7.8 | 12.2 | 0.04 | 0.06 | 0.07 | 88 | 1018.2 |
| 20260503002338 | 69 | 80 | 8.7 | 12.2 | 0.04 | 0.06 | 0.07 | 89 | 1018.2 |
| 20260503001838 | 69 | 115 | 5.2 | 9.6 | 0.03 | 0.06 | 0.06 | 89 | 1018.1 |
| 20260503001333 | 69 | 115 | 3.5 | 9.6 | 0.03 | 0.06 | 0.06 | 89 | 1018.1 |
| 20260503000831 | 69 | 100 | 5.2 | 12.2 | 0.03 | 0.06 | 0.06 | 88 | 1018.2 |
| 20260503000331 | 69 | 107 | 6.1 | 12.2 | 0.02 | 0.06 | 0.06 | 88 | 1018.1 |
| 20260502235832 | 69 | 96 | 5.2 | 9.6 | 0.02 | 0.03 | 0.06 | 88 | 1018.1 |
| 20260502235332 | 69 | 110 | 6.1 | 9.6 | 0.02 | 0.03 | 0.05 | 87 | 1018.1 |
| 20260502234830 | 69 | 115 | 6.1 | 9.6 | 0.02 | 0.03 | 0.05 | 87 | 1018.1 |
| 20260502234330 | 70 | 107 | 4.3 | 8.7 | 0.01 | 0.03 | 0.04 | 87 | 1018.0 |
| 20260502233832 | 70 | 110 | 6.1 | 8.7 | 0.01 | 0.03 | 0.04 | 87 | 1018.0 |
| 20260502233331 | 70 | 124 | 5.2 | 8.7 | 0.01 | 0.03 | 0.03 | 87 | 1018.0 |
| 20260502233200 | 70 | 117 | 5.2 | 9.6 | 0.01 | 0.03 | 0.03 | 87 | 1017.9 |
| 20260502232331 | 70 | 146 | 3.5 | 10.4 | 0.01 | 0.03 | 0.03 | 87 | 1017.9 |
| 20260502232205 | 70 | 119 | 6.1 | 10.4 | 0.01 | 0.03 | 0.03 | 87 | 1017.8 |
| 20260502231748 | 70 | 113 | 5.2 | 11.3 | 0.01 | 0.03 | 0.03 | 87 | 1017.8 |
| 20260502230832 | 70 | 118 | 6.1 | 11.3 | 0.01 | 0.03 | 0.03 | 87 | 1017.7 |
| 20260502230719 | 70 | 119 | 6.1 | 10.4 | 0.01 | 0.03 | 0.03 | 88 | 1017.7 |
| 20260502225832 | 70 | 124 | 5.2 | 10.4 | 0.01 | 0.02 | 0.03 | 88 | 1017.7 |
| 20260502225332 | 70 | 107 | 3.5 | 7.8 | 0.01 | 0.02 | 0.03 | 89 | 1017.5 |
| 20260502224832 | 70 | 103 | 4.3 | 6.1 | 0.01 | 0.02 | 0.03 | 89 | 1017.5 |
| 20260502224733 | 70 | 111 | 2.6 | 7.0 | 0.01 | 0.02 | 0.03 | 89 | 1017.5 |
| 20260502223831 | 70 | 126 | 4.3 | 7.8 | 0.01 | 0.02 | 0.03 | 89 | 1017.5 |
| 20260502223331 | 70 | 117 | 3.5 | 7.8 | 0.00 | 0.02 | 0.02 | 89 | 1017.5 |
| 20260502223150 | 70 | 136 | 2.6 | 6.1 | 0.00 | 0.02 | 0.02 | 89 | 1017.6 |
| 20260502222648 | 70 | 147 | 2.6 | 6.1 | 0.00 | 0.02 | 0.02 | 90 | 1017.6 |
| 20260502221832 | 70 | 135 | 3.5 | 6.1 | 0.00 | 0.02 | 0.02 | 90 | 1017.6 |
| 20260502221330 | 70 | 148 | 1.7 | 5.2 | 0.00 | 0.02 | 0.02 | 91 | 1017.6 |
| 20260502220834 | 70 | 152 | 2.6 | 5.2 | 0.00 | 0.02 | 0.02 | 91 | 1017.6 |
| 20260502220748 | 70 | 154 | 1.7 | 3.5 | 0.00 | 0.02 | 0.02 | 92 | 1017.5 |
| 20260502220416 | 70 | 155 | 2.6 | 5.2 | 0.00 | 0.02 | 0.02 | 91 | 1017.6 |
| 20260502215445 | 69 | 151 | 1.7 | 3.5 | 0.00 | 0.02 | 0.02 | 92 | 1017.5 |
| 20260502215420 | 70 | 153 | 1.7 | 3.5 | 0.00 | 0.02 | 0.02 | 92 | 1017.6 |
| 20260502214722 | 69 | 151 | 1.7 | 3.5 | 0.01 | 0.02 | 0.02 | 92 | 1017.5 |
| 20260502213832 | 70 | 149 | 1.7 | 3.5 | 0.02 | 0.02 | 0.02 | 92 | 1017.5 |
| 20260502213332 | 69 | 148 | 1.7 | 2.6 | 0.02 | 0.02 | 0.02 | 92 | 1017.2 |
| 20260502212830 | 69 | 148 | 0.0 | 2.6 | 0.02 | 0.02 | 0.02 | 93 | 1017.2 |
| 20260502212333 | 69 | 148 | 1.7 | 2.6 | 0.02 | 0.02 | 0.02 | 92 | 1017.2 |
| 20260502211824 | 69 | 148 | 1.7 | 3.5 | 0.02 | 0.02 | 0.02 | 92 | 1017.3 |
| 20260502211320 | 69 | 148 | 0.9 | 4.3 | 0.02 | 0.02 | 0.02 | 92 | 1017.3 |
| 20260502210820 | 69 | 153 | 2.6 | 5.2 | 0.02 | 0.02 | 0.02 | 92 | 1017.5 |
| 20260502210315 | 70 | 154 | 2.6 | 5.2 | 0.02 | 0.02 | 0.02 | 91 | 1017.5 |
| 20260502205810 | 70 | 148 | 3.5 | 5.2 | 0.02 | 0.00 | 0.02 | 91 | 1017.5 |
| 20260502205311 | 70 | 154 | 2.6 | 7.0 | 0.02 | 0.00 | 0.02 | 90 | 1017.6 |
| 20260502205129 | 70 | 150 | 4.3 | 7.0 | 0.02 | 0.00 | 0.02 | 89 | 1017.7 |
| 20260502204305 | 70 | 109 | 1.7 | 7.8 | 0.02 | 0.00 | 0.02 | 89 | 1017.7 |
| 20260502203803 | 70 | 105 | 3.5 | 7.8 | 0.01 | 0.00 | 0.01 | 89 | 1017.6 |
| 20260502203305 | 70 | 98 | 5.2 | 7.8 | 0.01 | 0.00 | 0.01 | 88 | 1017.6 |
| 20260502202804 | 70 | 102 | 2.6 | 7.0 | 0.01 | 0.00 | 0.01 | 88 | 1017.6 |
| 20260502202305 | 70 | 71 | 1.7 | 7.0 | 0.01 | 0.00 | 0.01 | 88 | 1017.6 |
| 20260502202026 | 70 | 350 | 3.5 | 6.1 | 0.00 | 0.00 | 0.00 | 88 | 1017.5 |
| 20260502201927 | 70 | 131 | 1.7 | 6.1 | 0.01 | 0.00 | 0.01 | 88 | 1017.5 |
| 20260502200804 | 70 | 92 | 0.9 | 7.8 | 0.00 | 0.00 | 0.00 | 88 | 1017.5 |
| 20260502200637 | 70 | 314 | 3.5 | 7.8 | 0.00 | 0.00 | 0.00 | 88 | 1017.5 |
| 20260502195804 | 70 | 36 | 1.7 | 9.6 | 0.00 | 0.00 | 0.00 | 89 | 1017.6 |
| 20260502195305 | 70 | 309 | 4.3 | 9.6 | 0.00 | 0.00 | 0.00 | 89 | 1017.3 |
| 20260502195138 | 70 | 325 | 4.3 | 9.6 | 0.00 | 0.00 | 0.00 | 89 | 1017.2 |
| 20260502194450 | 70 | 105 | 12.2 | 20.0 | 0.00 | 0.00 | 0.00 | 87 | 1017.0 |
| 20260502194443 | 70 | 62 | 4.3 | 17.4 | 0.00 | 0.00 | 0.00 | 88 | 1017.6 |
| 20260502194355 | 70 | 300 | 1.7 | 15.6 | 0.00 | 0.00 | 0.00 | 89 | 1017.5 |
| 20260502193658 | 71 | 96 | 11.3 | 22.6 | 0.00 | 0.00 | 0.00 | 86 | 1016.9 |
| 20260502193318 | 70 | 70 | 9.6 | 20.0 | 0.00 | 0.00 | 0.00 | 87 | 1017.3 |
| 20260502192018 | 73 | 68 | 13.9 | 27.8 | 0.00 | 0.00 | 0.00 | 83 | 1017.2 |
| 20260502191923 | 71 | 91 | 13.0 | 22.6 | 0.00 | 0.00 | 0.00 | 84 | 1017.0 |
| 20260502190804 | 73 | 71 | 17.4 | 27.8 | 0.00 | 0.00 | 0.00 | 80 | 1017.0 |
| 20260502190306 | 75 | 80 | 12.2 | 24.3 | 0.00 | 0.00 | 0.00 | 79 | 1017.1 |
| 20260502185805 | 75 | 69 | 12.2 | 20.9 | 0.00 | 0.00 | 0.00 | 77 | 1017.2 |
| 20260502185306 | 76 | 80 | 14.8 | 25.2 | 0.00 | 0.00 | 0.00 | 76 | 1017.2 |
| 20260502184805 | 76 | 69 | 13.0 | 25.2 | 0.00 | 0.00 | 0.00 | 75 | 1017.6 |
| 20260502184304 | 77 | 102 | 13.0 | 23.5 | 0.00 | 0.00 | 0.00 | 74 | 1017.1 |
| 20260502183803 | 78 | 190 | 13.0 | 19.1 | 0.00 | 0.00 | 0.00 | 71 | 1017.0 |
| 20260502183408 | 80 | 83 | 11.3 | 20.0 | 0.00 | 0.00 | 0.00 | 67 | 1017.2 |
| 20260502183338 | 80 | 59 | 8.7 | 18.2 | 0.00 | 0.00 | 0.00 | 69 | 1017.3 |
| 20260502182305 | 79 | 92 | 10.4 | 20.0 | 0.00 | 0.00 | 0.00 | 67 | 1017.3 |
| 20260502181807 | 79 | 78 | 8.7 | 20.0 | 0.00 | 0.00 | 0.00 | 69 | 1017.3 |
| 20260502181305 | 79 | 92 | 11.3 | 22.6 | 0.00 | 0.00 | 0.00 | 71 | 1017.7 |
| 20260502181217 | 78 | 67 | 13.0 | 22.6 | 0.00 | 0.00 | 0.00 | 71 | 1017.7 |
| 20260502180302 | 80 | 113 | 11.3 | 17.4 | 0.00 | 0.00 | 0.00 | 71 | 1017.7 |
| 20260502180157 | 79 | 89 | 10.4 | 20.0 | 0.00 | 0.00 | 0.00 | 71 | 1017.8 |
| 20260502170304 | 79 | 64 | 8.7 | 20.0 | 0.00 | 0.00 | 0.00 | 68 | 1018.6 |
| 20260502170150 | 80 | 36 | 13.0 | 20.9 | 0.00 | 0.00 | 0.00 | 68 | 1018.5 |
| 20260502164304 | 80 | 70 | 9.6 | 17.4 | 0.00 | 0.00 | 0.00 | 64 | 1018.6 |
| 20260502163804 | 80 | 67 | 9.6 | 17.4 | 0.00 | 0.00 | 0.00 | 64 | 1018.7 |
| 20260502163302 | 80 | 59 | 8.7 | 17.4 | 0.00 | 0.00 | 0.00 | 63 | 1018.6 |
| 20260502162802 | 80 | 67 | 10.4 | 17.4 | 0.00 | 0.00 | 0.00 | 61 | 1018.7 |
| 20260502162305 | 81 | 86 | 9.6 | 19.1 | 0.00 | 0.00 | 0.00 | 64 | 1018.7 |
| 20260502161803 | 81 | 89 | 9.6 | 19.1 | 0.00 | 0.00 | 0.00 | 63 | 1018.8 |
| 20260502161302 | 81 | 72 | 11.3 | 15.6 | 0.00 | 0.00 | 0.00 | 63 | 1018.9 |
| 20260502160803 | 81 | 84 | 7.8 | 15.6 | 0.00 | 0.00 | 0.00 | 64 | 1018.9 |
| 20260502160303 | 81 | 99 | 8.7 | 14.8 | 0.00 | 0.00 | 0.00 | 63 | 1018.9 |
| 20260502151805 | 77 | 56 | 12.2 | 17.4 | 0.00 | 0.00 | 0.00 | 73 | 1019.0 |
| 20260502151304 | 77 | 97 | 7.8 | 16.5 | 0.00 | 0.00 | 0.00 | 74 | 1019.1 |
| 20260502150804 | 77 | 98 | 7.8 | 18.2 | 0.00 | 0.00 | 0.00 | 73 | 1019.2 |
| 20260502150304 | 77 | 42 | 8.7 | 18.2 | 0.00 | 0.00 | 0.00 | 74 | 1019.2 |
| 20260502140125 | 75 | 108 | 7.0 | 14.8 | 0.00 | 0.00 | 0.00 | 77 | 1018.7 |
| 20260502130303 | 72 | 147 | 4.3 | 8.7 | 0.00 | 0.00 | 0.00 | 80 | 1018.2 |
| 20260502123802 | 71 | 159 | 3.5 | 7.8 | 0.00 | 0.00 | 0.00 | 83 | 1017.7 |
| 20260502123304 | 71 | 116 | 2.6 | 7.8 | 0.00 | 0.00 | 0.00 | 84 | 1017.6 |
| 20260502123127 | 71 | 151 | 3.5 | 7.8 | 0.00 | 0.00 | 0.00 | 86 | 1017.7 |
| 20260502122306 | 70 | 150 | 3.5 | 5.2 | 0.00 | 0.00 | 0.00 | 87 | 1017.7 |
| 20260502121802 | 70 | 123 | 2.6 | 4.3 | 0.00 | 0.00 | 0.00 | 87 | 1017.7 |
| 20260502121609 | 70 | 121 | 1.7 | 6.1 | 0.00 | 0.00 | 0.00 | 88 | 1017.8 |
| 20260502120757 | 69 | 119 | 3.5 | 6.1 | 0.00 | 0.00 | 0.00 | 88 | 1017.7 |
| 20260502120257 | 69 | 101 | 1.7 | 3.5 | 0.00 | 0.00 | 0.00 | 89 | 1017.7 |
| 20260502115755 | 69 | 98 | 1.7 | 5.2 | 0.00 | 0.00 | 0.00 | 90 | 1017.9 |
| 20260502115250 | 69 | 97 | 2.6 | 7.8 | 0.00 | 0.00 | 0.00 | 90 | 1018.0 |
| 20260502114745 | 69 | 94 | 3.5 | 7.8 | 0.00 | 0.00 | 0.00 | 91 | 1018.0 |
| 20260502114241 | 68 | 84 | 5.2 | 7.8 | 0.00 | 0.00 | 0.00 | 91 | 1018.0 |
| 20260502114053 | 68 | 102 | 4.3 | 11.3 | 0.00 | 0.00 | 0.00 | 93 | 1018.0 |
| 20260502113239 | 68 | 70 | 7.0 | 11.3 | 0.00 | 0.00 | 0.00 | 93 | 1017.9 |
| 20260502112734 | 68 | 66 | 3.5 | 6.1 | 0.00 | 0.00 | 0.00 | 93 | 1017.9 |
| 20260502112555 | 68 | 78 | 3.5 | 6.1 | 0.00 | 0.00 | 0.00 | 93 | 1017.8 |
| 20260502112026 | 68 | 91 | 3.5 | 7.0 | 0.00 | 0.00 | 0.00 | 93 | 1017.8 |
| 20260502111234 | 68 | 87 | 3.5 | 7.0 | 0.00 | 0.00 | 0.00 | 93 | 1017.6 |
| 20260502111138 | 68 | 63 | 2.6 | 10.4 | 0.00 | 0.00 | 0.00 | 92 | 1017.1 |
| 20260502110801 | 68 | 68 | 3.5 | 7.0 | 0.00 | 0.00 | 0.00 | 93 | 1017.5 |
| 20260502110402 | 68 | 74 | 3.5 | 9.6 | 0.00 | 0.00 | 0.00 | 93 | 1017.3 |
| 20260502110110 | 69 | 67 | 4.3 | 10.4 | 0.00 | 0.00 | 0.00 | 93 | 1017.1 |
| 20260502105745 | 68 | 44 | 3.5 | 9.6 | 0.00 | 0.00 | 0.00 | 93 | 1017.3 |
| 20260502105418 | 68 | 95 | 5.2 | 9.6 | 0.00 | 0.00 | 0.00 | 92 | 1017.2 |
| 20260502105334 | 68 | 57 | 5.2 | 9.6 | 0.00 | 0.00 | 0.00 | 92 | 1017.3 |
| 20260502103231 | 69 | 53 | 1.7 | 5.2 | 0.00 | 0.00 | 0.00 | 94 | 1017.0 |
| 20260502102732 | 69 | 336 | 1.7 | 2.6 | 0.00 | 0.00 | 0.00 | 94 | 1016.9 |
| 20260502102234 | 69 | 336 | 0.9 | 1.7 | 0.00 | 0.00 | 0.00 | 94 | 1016.9 |
| 20260502101733 | 69 | 335 | 0.0 | 0.0 | 0.00 | 0.00 | 0.00 | 94 | 1016.8 |
| 20260502101233 | 69 | 335 | 0.0 | 3.5 | 0.00 | 0.00 | 0.00 | 94 | 1016.7 |
| 20260502100732 | 69 | 335 | 1.7 | 3.5 | 0.00 | 0.00 | 0.00 | 94 | 1016.6 |
| 20260502100232 | 69 | 334 | 0.9 | 2.6 | 0.00 | 0.00 | 0.00 | 95 | 1016.6 |
| 20260502091210 | 69 | 325 | 0.0 | 0.0 | 0.00 | 0.00 | 0.00 | 94 | 1016.1 |
| 20260502090706 | 69 | 325 | 0.0 | 0.0 | 0.00 | 0.00 | 0.00 | 94 | 1016.1 |
| 20260502090206 | 69 | 325 | 0.0 | 0.0 | 0.00 | 0.00 | 0.00 | 95 | 1016.1 |
| 20260502071204 | 69 | 325 | 1.7 | 2.6 | 0.00 | 0.00 | 0.00 | 94 | 1016.8 |
| 20260502070703 | 69 | 325 | 1.7 | 2.6 | 0.00 | 0.00 | 0.00 | 94 | 1017.0 |
| 20260502070204 | 69 | 325 | 1.7 | 3.5 | 0.00 | 0.00 | 0.00 | 94 | 1017.1 |
| 20260502065706 | 69 | 325 | 1.7 | 3.5 | 0.00 | 0.00 | 0.00 | 94 | 1017.2 |
| 20260502065205 | 69 | 325 | 1.7 | 4.3 | 0.00 | 0.00 | 0.00 | 94 | 1017.3 |
| 20260502064705 | 69 | 325 | 1.7 | 4.3 | 0.00 | 0.00 | 0.00 | 94 | 1017.5 |
| 20260502064650 | 69 | 325 | 0.9 | 2.6 | 0.00 | 0.00 | 0.00 | 93 | 1017.2 |
| 20260502064309 | 69 | 325 | 2.6 | 4.3 | 0.00 | 0.00 | 0.00 | 94 | 1017.5 |
| 20260502063914 | 69 | 325 | 1.7 | 3.5 | 0.00 | 0.00 | 0.00 | 93 | 1017.5 |
| 20260502063311 | 69 | 325 | 1.7 | 3.5 | 0.00 | 0.00 | 0.00 | 93 | 1017.5 |
| 20260502062509 | 69 | 324 | 0.9 | 2.6 | 0.00 | 0.00 | 0.00 | 93 | 1017.1 |
| 20260502062152 | 69 | 324 | 0.9 | 3.5 | 0.00 | 0.00 | 0.00 | 93 | 1017.3 |
| 20260502061759 | 69 | 324 | 0.0 | 2.6 | 0.00 | 0.00 | 0.00 | 93 | 1017.2 |
| 20260502060704 | 69 | 324 | 0.9 | 3.5 | 0.00 | 0.00 | 0.00 | 93 | 1017.3 |
| 20260502060205 | 69 | 325 | 1.7 | 4.3 | 0.00 | 0.00 | 0.00 | 93 | 1017.6 |
| 20260502055841 | 69 | 322 | 1.7 | 5.2 | 0.00 | 0.00 | 0.00 | 93 | 1017.8 |
| 20260502055805 | 69 | 323 | 1.7 | 5.2 | 0.00 | 0.00 | 0.00 | 93 | 1017.7 |
| 20260502054703 | 69 | 319 | 2.6 | 4.3 | 0.00 | 0.00 | 0.00 | 93 | 1017.9 |
| 20260502054158 | 70 | 319 | 1.7 | 3.5 | 0.00 | 0.00 | 0.00 | 93 | 1017.9 |
| 20260502054022 | 69 | 319 | 1.7 | 3.5 | 0.00 | 0.00 | 0.00 | 93 | 1017.9 |
| 20260502053153 | 69 | 318 | 1.7 | 3.5 | 0.00 | 0.00 | 0.00 | 93 | 1017.9 |
| 20260502052650 | 70 | 317 | 0.9 | 3.5 | 0.00 | 0.00 | 0.00 | 93 | 1018.1 |
| 20260502052145 | 70 | 318 | 1.7 | 3.5 | 0.00 | 0.00 | 0.00 | 93 | 1018.3 |
| 20260502051635 | 70 | 316 | 0.9 | 3.5 | 0.00 | 0.00 | 0.00 | 93 | 1018.5 |
| 20260502051132 | 70 | 316 | 0.9 | 4.3 | 0.00 | 0.00 | 0.00 | 93 | 1018.6 |
| 20260502050633 | 70 | 316 | 2.6 | 4.3 | 0.00 | 0.00 | 0.00 | 93 | 1018.7 |
| 20260502050120 | 70 | 314 | 1.7 | 4.3 | 0.00 | 0.00 | 0.00 | 93 | 1018.8 |
| 20260502045621 | 70 | 314 | 3.5 | 4.3 | 0.00 | 0.00 | 0.00 | 93 | 1018.8 |
| 20260502045112 | 70 | 316 | 1.7 | 4.3 | 0.00 | 0.00 | 0.00 | 93 | 1018.8 |
| 20260502045041 | 70 | 313 | 3.5 | 5.2 | 0.00 | 0.00 | 0.00 | 92 | 1018.7 |
| 20260502045036 | 70 | 315 | 1.7 | 5.2 | 0.00 | 0.00 | 0.00 | 92 | 1018.8 |
| 20260502043604 | 70 | 324 | 1.7 | 4.3 | 0.00 | 0.00 | 0.00 | 92 | 1018.6 |
| 20260502043106 | 70 | 325 | 1.7 | 3.5 | 0.00 | 0.00 | 0.00 | 92 | 1018.5 |
| 20260502042602 | 70 | 325 | 1.7 | 3.5 | 0.00 | 0.00 | 0.00 | 92 | 1018.6 |
| 20260502042104 | 70 | 325 | 0.9 | 3.5 | 0.00 | 0.00 | 0.00 | 92 | 1018.6 |
| 20260502042058 | 70 | 324 | 1.7 | 4.3 | 0.00 | 0.00 | 0.00 | 93 | 1018.6 |
| 20260502042052 | 70 | 324 | 0.0 | 2.6 | 0.00 | 0.00 | 0.00 | 93 | 1018.7 |
| 20260502040603 | 70 | 324 | 2.6 | 4.3 | 0.00 | 0.00 | 0.00 | 93 | 1018.6 |
| 20260502035604 | 70 | 323 | 0.0 | 3.5 | 0.00 | 0.00 | 0.00 | 93 | 1018.7 |
| 20260502035103 | 70 | 323 | 1.7 | 5.2 | 0.00 | 0.00 | 0.00 | 93 | 1018.6 |
| 20260502034916 | 70 | 323 | 1.7 | 5.2 | 0.00 | 0.00 | 0.00 | 92 | 1018.6 |
| 20260502034103 | 70 | 323 | 2.6 | 5.2 | 0.00 | 0.00 | 0.00 | 92 | 1018.5 |
| 20260502033724 | 70 | 308 | 3.5 | 7.0 | 0.00 | 0.00 | 0.00 | 92 | 1018.6 |
| 20260502033657 | 70 | 311 | 2.6 | 4.3 | 0.00 | 0.00 | 0.00 | 92 | 1018.5 |
| 20260502032606 | 70 | 318 | 2.6 | 7.0 | 0.00 | 0.00 | 0.00 | 92 | 1018.6 |
| 20260502032559 | 70 | 316 | 3.5 | 7.0 | 0.00 | 0.00 | 0.00 | 91 | 1018.6 |
| 20260502032555 | 70 | 328 | 4.3 | 7.0 | 0.00 | 0.00 | 0.00 | 92 | 1018.6 |
| 20260502032246 | 70 | 338 | 3.5 | 7.8 | 0.00 | 0.00 | 0.00 | 92 | 1018.6 |
| 20260502032158 | 70 | 315 | 3.5 | 7.8 | 0.00 | 0.00 | 0.00 | 92 | 1018.6 |
| 20260502030104 | 70 | 300 | 2.6 | 7.0 | 0.00 | 0.00 | 0.00 | 92 | 1018.6 |
| 20260502025755 | 71 | 340 | 1.7 | 4.3 | 0.00 | 0.00 | 0.00 | 92 | 1018.6 |
| 20260502025706 | 70 | 339 | 3.5 | 5.2 | 0.00 | 0.00 | 0.00 | 91 | 1018.7 |
| 20260502024605 | 71 | 9 | 3.5 | 4.3 | 0.00 | 0.00 | 0.00 | 92 | 1018.6 |
| 20260502024421 | 71 | 15 | 0.0 | 2.6 | 0.00 | 0.00 | 0.00 | 92 | 1018.6 |
| 20260502023603 | 71 | 15 | 0.9 | 3.5 | 0.00 | 0.00 | 0.00 | 91 | 1018.3 |
| 20260502023413 | 71 | 15 | 0.0 | 3.5 | 0.00 | 0.00 | 0.00 | 91 | 1018.3 |
| 20260502022603 | 71 | 15 | 0.9 | 2.6 | 0.00 | 0.00 | 0.00 | 91 | 1018.1 |
| 20260502022104 | 71 | 13 | 0.0 | 0.9 | 0.00 | 0.00 | 0.00 | 91 | 1018.1 |
| 20260502021603 | 71 | 13 | 0.0 | 1.7 | 0.00 | 0.00 | 0.00 | 91 | 1018.1 |
| 20260502021105 | 71 | 13 | 0.0 | 2.6 | 0.00 | 0.00 | 0.00 | 91 | 1018.0 |
| 20260502020604 | 71 | 13 | 1.7 | 2.6 | 0.00 | 0.00 | 0.00 | 91 | 1017.9 |
| 20260502020240 | 71 | 13 | 0.9 | 2.6 | 0.00 | 0.00 | 0.00 | 91 | 1017.6 |
| 20260502020158 | 71 | 13 | 0.9 | 1.7 | 0.00 | 0.00 | 0.00 | 91 | 1017.8 |
| 20260502015104 | 71 | 13 | 1.7 | 2.6 | 0.00 | 0.00 | 0.00 | 90 | 1017.2 |
| 20260502014557 | 71 | 13 | 0.9 | 2.6 | 0.00 | 0.00 | 0.00 | 90 | 1017.0 |